Etusivu
METAR-TAF:

METAR-TAF

Lentoasemat :

Charlotte, Michigan, Yhdysvallat

Leveyspiiri: 42-34-28N, Pituuspiiri: 084-48-41W, korkeus merenpinnasta: 271 m

Tämänhetkinen sää

Tämä raportti tehtiin 12 minuuttia sitten, kello 07.15 UTC
tyyntä
Lämpötila 4°C
Kosteus 87%
Ilmanpaine 1019 hPa
Näkyvyys: 16.1 km
selkeää

METAR: KFPK 020715Z AUTO 00000KT 10SM CLR 04/02 A3009 RMK AO2 T00380021

Aika: 03:27 (07:27 UTC)


TAF: puuttuu

Säähavainnot ja -ennusteet yli 4000 lentoasemalta (METAR- ja TAF-raportit).

Käytössä olevat sääasemat on merkitty karttaan keltaisilla ja punaisilla pisteillä.

Aseta hiiri pisteen päälle nähdäksesi sääaseman nimen.

Klikkaa sitten nähdäksesi säähavainnot ja -ennusteet.

Kartan vaihtaminen: klikkaa mustalla rastilla varustettuja vihreitä pisteitä, niin voit zoomata sisään; viivalla varustettua vihreää pistettä, niin voit zoomata ulos tai vihreitä nuolia, niin pääset viereisille kartoille.


METAR-TAF: